Stephen R Warden — WDC6523 — position and weather

sailwx.info

Track history (hours):
 
Tides and Currents Weather Stations Pressure Air Temp Water Temp Dewpoint Dewpoint Depression Visibility Wind Speed Wind Dir Waves Ship Positions

Stephen R Warden

Owner: American Commercial Lines LLC, Jeffersonvile, IN. More information available from US FCC via Universal Licensing System and Coast Guard Vessel Documentation Center.

Last reported at 2015-Feb-01 12:33 UTC. Time now 2015-Feb-01 18:19 UTC.
Position N 30°01' W 090°50'.

Length 37 m; draft 3 m.

Type: Towing. MMSI: 367057460.

Date/timePositionNaut miles runAvg speedWind from/ knotsBaromVisibWave heightAir tempDewpointWater temp
2015-Feb-01 12:33N 30°01' W 090°50'3 2.7
2015-Feb-01 11:33N 29°60' W 090°48'45 1.4
2015-Jan-31 03:30N 29°55' W 089°56'4 4.4
2015-Jan-31 02:33N 29°57' W 090°01'6 6.2
2015-Jan-31 01:33N 29°55' W 090°08'3 1.4
2015-Jan-30 23:21N 29°56' W 090°11'22 1.7
2015-Jan-30 10:28N 30°03' W 090°35'8 1.3
2015-Jan-30 04:33N 30°01' W 090°44'0 0.3
2015-Jan-30 03:33N 30°01' W 090°44'3 2.5
2015-Jan-30 02:33N 30°02' W 090°41'30 2.2
2015-Jan-29 13:17N 29°55' W 090°08'6 3.1
2015-Jan-29 11:14N 29°57' W 090°01'4 4.1
2015-Jan-29 10:09N 29°55' W 089°56'1 0.8
2015-Jan-29 09:30N 29°55' W 089°56'0 0.0
2015-Jan-29 08:31N 29°55' W 089°56'0 0.0
2015-Jan-29 07:25N 29°55' W 089°56'0 0.1
2015-Jan-29 06:31N 29°55' W 089°56'1 0.7
2015-Jan-29 04:33N 29°55' W 089°57'2 1.6
2015-Jan-29 03:33N 29°56' W 089°59'0 0.0
2015-Jan-29 02:33N 29°56' W 089°59'0 0.0
2015-Jan-29 01:31N 29°56' W 089°59'0 0.0
2015-Jan-29 00:26N 29°56' W 089°59'1 0.8
2015-Jan-28 23:32N 29°55' W 089°58'7 0.5
2015-Jan-28 09:29N 29°54' W 090°07'25 1.1
2015-Jan-27 10:26N 30°03' W 090°34'0 0.5
2015-Jan-27 09:22N 30°03' W 090°34'2 2.6
2015-Jan-27 08:33N 30°02' W 090°37'0 0.1
2015-Jan-27 07:30N 30°02' W 090°37'3 3.2
2015-Jan-27 06:33N 30°03' W 090°40'5 2.1
2015-Jan-27 04:11N 30°01' W 090°45'5 0.2
2015-Jan-26 06:14N 30°02' W 090°50'4 4.6
2015-Jan-26 05:24N 29°59' W 090°49'21 1.4
2015-Jan-25 14:26N 29°60' W 090°25'2 2.4
2015-Jan-25 13:23N 29°57' W 090°24'15 5.3
2015-Jan-25 10:33N 30°03' W 090°40'27 1.5
2015-Jan-24 16:20N 29°57' W 090°10'2 3.2
2015-Jan-24 15:33N 29°55' W 090°08'4 4.3
2015-Jan-24 14:33N 29°57' W 090°04'4 4.1
2015-Jan-24 13:33N 29°56' W 089°59'3 3.4
2015-Jan-24 12:33N 29°55' W 089°55'0 0.0
2015-Jan-24 11:23N 29°55' W 089°55'1 1.2
2015-Jan-24 10:25N 29°54' W 089°55'3 3.2
2015-Jan-24 09:21N 29°53' W 089°58'9 0.3
2015-Jan-22 23:25N 29°56' W 090°08'4 4.2
2015-Jan-22 22:30N 29°55' W 090°04'3 3.4
2015-Jan-22 21:29N 29°57' W 090°00'  
Track history (hours):
 
Tides and Currents Weather Stations Pressure Air Temp Water Temp Dewpoint Dewpoint Depression Visibility Wind Speed Wind Dir Waves Ship Positions

Stephen R Warden

Owner: American Commercial Lines LLC, Jeffersonvile, IN. More information available from US FCC via Universal Licensing System and Coast Guard Vessel Documentation Center.

Last reported at 2015-Feb-01 12:33 UTC. Time now 2015-Feb-01 18:19 UTC.
Position N 30°01' W 090°50'.

Length 37 m; draft 3 m.

Type: Towing. MMSI: 367057460.

Date/timePositionNaut miles runAvg speedWind from/ knotsBaromVisibWave heightAir tempDewpointWater temp
2015-Feb-01 12:33N 30°01' W 090°50'3 2.7
2015-Feb-01 11:33N 29°60' W 090°48'45 1.4
2015-Jan-31 03:30N 29°55' W 089°56'4 4.4
2015-Jan-31 02:33N 29°57' W 090°01'6 6.2
2015-Jan-31 01:33N 29°55' W 090°08'3 1.4
2015-Jan-30 23:21N 29°56' W 090°11'22 1.7
2015-Jan-30 10:28N 30°03' W 090°35'8 1.3
2015-Jan-30 04:33N 30°01' W 090°44'0 0.3
2015-Jan-30 03:33N 30°01' W 090°44'3 2.5
2015-Jan-30 02:33N 30°02' W 090°41'30 2.2
2015-Jan-29 13:17N 29°55' W 090°08'6 3.1
2015-Jan-29 11:14N 29°57' W 090°01'4 4.1
2015-Jan-29 10:09N 29°55' W 089°56'1 0.8
2015-Jan-29 09:30N 29°55' W 089°56'0 0.0
2015-Jan-29 08:31N 29°55' W 089°56'0 0.0
2015-Jan-29 07:25N 29°55' W 089°56'0 0.1
2015-Jan-29 06:31N 29°55' W 089°56'1 0.7
2015-Jan-29 04:33N 29°55' W 089°57'2 1.6
2015-Jan-29 03:33N 29°56' W 089°59'0 0.0
2015-Jan-29 02:33N 29°56' W 089°59'0 0.0
2015-Jan-29 01:31N 29°56' W 089°59'0 0.0
2015-Jan-29 00:26N 29°56' W 089°59'1 0.8
2015-Jan-28 23:32N 29°55' W 089°58'7 0.5
2015-Jan-28 09:29N 29°54' W 090°07'25 1.1
2015-Jan-27 10:26N 30°03' W 090°34'0 0.5
2015-Jan-27 09:22N 30°03' W 090°34'2 2.6
2015-Jan-27 08:33N 30°02' W 090°37'0 0.1
2015-Jan-27 07:30N 30°02' W 090°37'3 3.2
2015-Jan-27 06:33N 30°03' W 090°40'5 2.1
2015-Jan-27 04:11N 30°01' W 090°45'5 0.2
2015-Jan-26 06:14N 30°02' W 090°50'4 4.6
2015-Jan-26 05:24N 29°59' W 090°49'21 1.4
2015-Jan-25 14:26N 29°60' W 090°25'2 2.4
2015-Jan-25 13:23N 29°57' W 090°24'15 5.3
2015-Jan-25 10:33N 30°03' W 090°40'27 1.5
2015-Jan-24 16:20N 29°57' W 090°10'2 3.2
2015-Jan-24 15:33N 29°55' W 090°08'4 4.3
2015-Jan-24 14:33N 29°57' W 090°04'4 4.1
2015-Jan-24 13:33N 29°56' W 089°59'3 3.4
2015-Jan-24 12:33N 29°55' W 089°55'0 0.0
2015-Jan-24 11:23N 29°55' W 089°55'1 1.2
2015-Jan-24 10:25N 29°54' W 089°55'3 3.2
2015-Jan-24 09:21N 29°53' W 089°58'9 0.3
2015-Jan-22 23:25N 29°56' W 090°08'4 4.2
2015-Jan-22 22:30N 29°55' W 090°04'3 3.4
2015-Jan-22 21:29N 29°57' W 090°00'  

Dump ship's entire track history